Time;durP1;ratioP1;P1;durP2;ratioP2;P2;SDS_P1;SDS_P2;PMS_P1;PMS_P2;Temp;Humidity;BMP_temperature;BMP_pressure;BME280_temperature;BME280_humidity;BME280_pressure;Samples;Min_cycle;Max_cycle;Signal;HPM_P1;HPM_P2
2021/06/05 00:00:27;;;;;;;41.25;26.52;;;16.90;99.90;;;;;;5093744;28;20040;-56
2021/06/05 00:02:53;;;;;;;44.88;27.50;;;16.90;99.90;;;;;;5094377;28;20048;-56
2021/06/05 00:05:21;;;;;;;39.53;24.67;;;16.80;99.90;;;;;;5094302;28;20147;-56
2021/06/05 00:07:47;;;;;;;40.72;24.45;;;16.90;99.90;;;;;;5094484;28;20048;-56
2021/06/05 00:10:17;;;;;;;39.55;24.20;;;16.90;99.90;;;;;;5094346;28;20047;-56
2021/06/05 00:12:43;;;;;;;34.58;23.30;;;17.00;99.90;;;;;;5094175;28;20036;-56
2021/06/05 00:15:13;;;;;;;28.63;19.83;;;16.90;99.90;;;;;;5092574;28;20097;-56
2021/06/05 00:17:39;;;;;;;27.00;18.90;;;16.90;99.90;;;;;;5093888;28;20040;-56
2021/06/05 00:20:11;;;;;;;36.83;21.52;;;16.80;99.90;;;;;;5093981;28;20366;-56
2021/06/05 00:22:37;;;;;;;29.13;19.77;;;16.80;99.90;;;;;;5094304;28;20048;-56
2021/06/05 00:25:06;;;;;;;28.42;19.80;;;16.70;99.90;;;;;;5094186;28;20931;-56
2021/06/05 00:27:32;;;;;;;26.38;18.00;;;16.70;99.90;;;;;;5093777;28;20473;-56
2021/06/05 00:29:57;;;;;;;29.23;19.85;;;16.50;99.90;;;;;;5094140;28;20050;-56
2021/06/05 00:32:23;;;;;;;28.85;19.70;;;16.50;99.90;;;;;;5093845;28;20040;-56
2021/06/05 00:34:49;;;;;;;26.65;18.58;;;16.60;99.90;;;;;;5094005;28;20127;-56
2021/06/05 00:37:14;;;;;;;29.02;18.58;;;16.50;99.90;;;;;;5093826;28;20575;-56
2021/06/05 00:39:40;;;;;;;31.95;20.08;;;16.50;99.90;;;;;;5093567;28;20100;-56
2021/06/05 00:42:06;;;;;;;28.95;21.35;;;16.50;99.90;;;;;;5092569;28;20051;-56
2021/06/05 00:44:32;;;;;;;34.55;21.58;;;16.50;99.90;;;;;;5093474;28;20044;-57
2021/06/05 00:46:58;;;;;;;30.83;21.08;;;16.30;99.90;;;;;;5093467;28;20047;-55
2021/06/05 00:49:24;;;;;;;29.58;20.85;;;16.30;99.90;;;;;;5093598;28;20047;-56
2021/06/05 00:51:53;;;;;;;30.60;21.63;;;16.40;99.90;;;;;;5093570;28;20048;-56
2021/06/05 00:54:21;;;;;;;37.58;22.30;;;16.50;99.90;;;;;;5093174;28;20105;-56
2021/06/05 00:56:53;;;;;;;29.73;20.65;;;16.40;99.90;;;;;;5093289;28;20079;-56
2021/06/05 00:59:19;;;;;;;31.33;21.77;;;16.40;99.90;;;;;;5093288;28;20040;-56
2021/06/05 01:01:45;;;;;;;26.25;19.85;;;16.40;99.90;;;;;;5093138;28;20040;-56
2021/06/05 01:04:11;;;;;;;23.25;17.20;;;16.40;99.90;;;;;;5093336;28;20387;-56
2021/06/05 01:06:58;;;;;;;25.83;17.95;;;16.40;99.90;;;;;;5093056;28;20474;-56
2021/06/05 01:09:35;;;;;;;23.42;18.50;;;16.50;99.90;;;;;;5093073;28;20047;-55
2021/06/05 01:12:03;;;;;;;33.45;20.55;;;16.40;99.90;;;;;;5092044;28;20044;-56
2021/06/05 01:14:33;;;;;;;28.08;19.30;;;16.40;99.90;;;;;;5093243;28;20044;-55
2021/06/05 01:17:26;;;;;;;22.63;16.77;;;16.40;99.90;;;;;;5093037;28;20101;-56
2021/06/05 01:20:04;;;;;;;29.98;19.17;;;16.40;99.90;;;;;;5092917;28;20044;-56
2021/06/05 01:23:07;;;;;;;31.83;20.13;;;16.40;99.90;;;;;;5092786;28;20047;-56
2021/06/05 01:26:01;;;;;;;30.50;20.77;;;16.40;99.90;;;;;;5092838;28;20043;-56
2021/06/05 01:28:34;;;;;;;31.42;21.70;;;16.40;99.90;;;;;;5092654;28;20496;-56
2021/06/05 01:31:05;;;;;;;35.92;22.25;;;16.40;99.90;;;;;;5092568;28;20401;-56
2021/06/05 01:33:33;;;;;;;33.60;22.10;;;16.30;99.90;;;;;;5092606;28;20497;-56
2021/06/05 01:35:59;;;;;;;36.33;22.45;;;16.40;99.90;;;;;;5092463;28;20067;-56
2021/06/05 01:38:26;;;;;;;32.80;22.17;;;16.40;99.90;;;;;;5092572;28;20040;-56
2021/06/05 01:40:54;;;;;;;35.13;22.63;;;16.40;99.90;;;;;;5092526;28;20047;-56
2021/06/05 01:43:28;;;;;;;32.30;21.42;;;16.40;99.90;;;;;;5092234;28;20477;-56
2021/06/05 01:45:56;;;;;;;30.77;21.13;;;16.40;99.90;;;;;;5092859;28;20048;-56
2021/06/05 01:48:22;;;;;;;34.22;23.67;;;16.40;99.90;;;;;;5092624;28;20051;-56
2021/06/05 01:50:49;;;;;;;40.25;22.50;;;16.50;99.90;;;;;;5092584;28;20047;-56
2021/06/05 01:53:26;;;;;;;31.98;21.63;;;16.40;99.90;;;;;;5092475;28;20055;-56
2021/06/05 01:56:16;;;;;;;33.70;22.85;;;16.40;99.90;;;;;;5091945;28;20143;-56
2021/06/05 01:58:43;;;;;;;35.03;23.48;;;16.40;99.90;;;;;;5092223;28;20036;-55
2021/06/05 02:01:11;;;;;;;32.15;21.55;;;16.40;99.90;;;;;;5092293;28;20046;-56
2021/06/05 02:03:37;;;;;;;36.42;22.60;;;16.40;99.90;;;;;;5092105;28;20043;-56
2021/06/05 02:06:04;;;;;;;39.17;24.40;;;16.40;99.90;;;;;;5092168;28;20177;-56
2021/06/05 02:08:32;;;;;;;32.47;21.05;;;16.40;99.90;;;;;;5092046;28;20051;-56
2021/06/05 02:11:13;;;;;;;37.23;23.77;;;16.30;99.90;;;;;;5092011;28;20040;-56
2021/06/05 02:13:56;;;;;;;39.03;25.00;;;16.20;99.90;;;;;;5091990;28;20036;-56
2021/06/05 02:16:29;;;;;;;39.00;24.50;;;16.20;99.90;;;;;;5092115;28;20052;-56
2021/06/05 02:19:00;;;;;;;47.05;26.73;;;16.20;99.90;;;;;;5091869;28;20059;-56
2021/06/05 02:21:28;;;;;;;41.60;24.65;;;16.20;99.90;;;;;;5092081;28;20048;-56
2021/06/05 02:23:59;;;;;;;30.85;21.67;;;16.30;99.90;;;;;;5091644;28;20068;-56
2021/06/05 02:26:26;;;;;;;28.55;20.17;;;16.30;99.90;;;;;;5091830;28;20048;-56
2021/06/05 02:28:58;;;;;;;29.17;21.42;;;16.30;99.90;;;;;;5091863;28;20044;-56
2021/06/05 02:31:25;;;;;;;28.70;19.73;;;16.30;99.90;;;;;;5091819;28;20552;-56
2021/06/05 02:33:52;;;;;;;27.98;18.77;;;16.20;99.90;;;;;;5092329;28;20475;-56
2021/06/05 02:36:19;;;;;;;26.10;19.60;;;16.20;99.90;;;;;;5091992;28;20364;-56
2021/06/05 02:38:49;;;;;;;26.90;19.30;;;16.10;99.90;;;;;;5091998;28;20044;-56
2021/06/05 02:41:18;;;;;;;34.70;21.33;;;16.10;99.90;;;;;;5091804;28;20040;-56
2021/06/05 02:43:45;;;;;;;33.70;21.52;;;16.20;99.90;;;;;;5091549;28;20047;-56
2021/06/05 02:46:19;;;;;;;28.48;19.40;;;16.10;99.90;;;;;;5091883;28;20055;-56
2021/06/05 02:48:48;;;;;;;29.73;21.40;;;16.10;99.90;;;;;;5091672;28;20040;-56
2021/06/05 02:51:15;;;;;;;30.55;22.25;;;16.10;99.90;;;;;;5091704;28;20040;-56
2021/06/05 02:53:41;;;;;;;26.63;19.90;;;16.20;99.90;;;;;;5091785;28;20054;-56
2021/06/05 02:56:09;;;;;;;27.63;20.25;;;16.10;99.90;;;;;;5091232;28;20405;-56
2021/06/05 02:58:35;;;;;;;24.38;20.15;;;16.10;99.90;;;;;;5091724;28;20040;-56
2021/06/05 03:01:01;;;;;;;25.58;20.48;;;16.10;99.90;;;;;;5091585;28;20136;-56
2021/06/05 03:03:26;;;;;;;23.42;17.90;;;16.10;99.90;;;;;;5091655;28;20040;-56
2021/06/05 03:05:53;;;;;;;20.60;17.40;;;16.10;99.90;;;;;;5091439;28;20485;-56
2021/06/05 03:08:24;;;;;;;21.50;18.13;;;16.20;99.90;;;;;;5091542;28;20046;-56
2021/06/05 03:10:50;;;;;;;21.00;18.00;;;16.20;99.90;;;;;;5091367;28;20048;-56
2021/06/05 03:13:16;;;;;;;20.55;17.25;;;16.20;99.90;;;;;;5091781;28;20098;-56
2021/06/05 03:15:42;;;;;;;22.27;17.83;;;16.30;99.90;;;;;;5091264;28;20482;-56
2021/06/05 03:18:08;;;;;;;22.45;19.52;;;16.30;99.90;;;;;;5091566;28;20044;-56
2021/06/05 03:20:40;;;;;;;21.40;18.17;;;16.30;99.90;;;;;;5091432;28;20044;-56
2021/06/05 03:23:07;;;;;;;21.55;18.92;;;16.40;99.90;;;;;;5091503;28;20043;-56
2021/06/05 03:25:33;;;;;;;22.25;17.63;;;16.40;99.90;;;;;;5091171;28;20549;-56
2021/06/05 03:27:59;;;;;;;20.27;17.65;;;16.40;99.90;;;;;;5091451;28;20127;-56
2021/06/05 03:30:26;;;;;;;22.95;18.35;;;16.40;99.90;;;;;;5091356;28;20062;-56
2021/06/05 03:32:53;;;;;;;21.83;19.02;;;16.40;99.90;;;;;;5091376;28;20047;-56
2021/06/05 03:35:20;;;;;;;22.02;18.65;;;16.40;99.90;;;;;;5092488;28;20040;-57
2021/06/05 03:37:46;;;;;;;21.00;18.75;;;16.40;99.90;;;;;;5094860;28;20461;-56
2021/06/05 03:40:16;;;;;;;21.92;18.55;;;16.30;99.90;;;;;;5094791;28;20429;-57
2021/06/05 03:42:42;;;;;;;21.42;17.70;;;16.30;99.90;;;;;;5094892;28;20051;-56
2021/06/05 03:45:09;;;;;;;21.92;18.65;;;16.20;99.90;;;;;;5094906;28;20478;-56
2021/06/05 03:47:37;;;;;;;24.30;20.48;;;16.30;99.90;;;;;;5094662;28;20047;-56
2021/06/05 03:50:06;;;;;;;30.40;20.83;;;16.30;99.90;;;;;;5094646;28;20043;-56
2021/06/05 03:52:32;;;;;;;29.95;21.35;;;16.30;99.90;;;;;;5094562;28;20044;-56
2021/06/05 03:54:58;;;;;;;27.08;20.88;;;16.30;99.90;;;;;;5094371;28;20047;-56
2021/06/05 03:57:26;;;;;;;31.92;24.30;;;16.20;99.90;;;;;;5094318;28;20044;-56
2021/06/05 03:59:54;;;;;;;30.35;23.40;;;16.20;99.90;;;;;;5094511;28;20082;-56
2021/06/05 04:02:21;;;;;;;34.75;26.15;;;16.10;99.90;;;;;;5094459;28;20064;-56
2021/06/05 04:04:47;;;;;;;31.73;24.17;;;16.10;99.90;;;;;;5094373;28;20051;-56
2021/06/05 04:07:14;;;;;;;30.58;23.33;;;16.10;99.90;;;;;;5093047;28;20040;-56
2021/06/05 04:09:40;;;;;;;30.48;22.63;;;16.20;99.90;;;;;;5094514;28;20048;-56
2021/06/05 04:12:07;;;;;;;29.67;21.92;;;16.20;99.90;;;;;;5094432;28;20075;-56
2021/06/05 04:14:33;;;;;;;32.85;23.35;;;16.30;99.90;;;;;;5092936;28;20047;-57
2021/06/05 04:16:59;;;;;;;40.90;27.40;;;16.40;99.90;;;;;;5094273;28;20093;-56
2021/06/05 04:19:25;;;;;;;34.50;25.58;;;16.40;99.90;;;;;;5094032;28;20082;-56
2021/06/05 04:21:52;;;;;;;46.95;25.83;;;16.30;99.90;;;;;;5093871;28;20068;-56
2021/06/05 04:24:18;;;;;;;47.13;26.23;;;16.30;99.90;;;;;;5094173;28;20044;-56
2021/06/05 04:26:44;;;;;;;34.40;25.17;;;16.30;99.90;;;;;;5093884;28;20074;-56
2021/06/05 04:29:11;;;;;;;36.60;24.42;;;16.20;99.90;;;;;;5093943;28;20068;-56
2021/06/05 04:31:37;;;;;;;43.35;24.35;;;16.30;99.90;;;;;;5093864;28;20039;-56
2021/06/05 04:34:04;;;;;;;36.92;22.75;;;16.20;99.90;;;;;;5093778;28;20066;-56
2021/06/05 04:36:30;;;;;;;30.30;21.52;;;16.20;99.90;;;;;;5093839;28;20044;-56
2021/06/05 04:38:56;;;;;;;33.28;23.23;;;16.20;99.90;;;;;;5093596;28;20039;-56
2021/06/05 04:41:26;;;;;;;31.75;22.50;;;16.20;99.90;;;;;;5093760;28;20389;-56
2021/06/05 04:43:52;;;;;;;34.28;24.95;;;16.20;99.90;;;;;;5093560;28;20047;-56
2021/06/05 04:46:18;;;;;;;28.58;21.50;;;16.20;99.90;;;;;;5093365;28;20043;-56
2021/06/05 04:48:45;;;;;;;30.15;22.52;;;16.10;99.90;;;;;;5093427;28;20056;-56
2021/06/05 04:51:14;;;;;;;35.45;24.80;;;16.20;99.90;;;;;;5093771;28;20131;-56
2021/06/05 04:53:40;;;;;;;35.87;25.53;;;16.10;99.90;;;;;;5093507;28;20047;-57
2021/06/05 04:56:07;;;;;;;38.30;26.88;;;16.10;99.90;;;;;;5093229;28;20312;-56
2021/06/05 04:58:33;;;;;;;39.88;28.38;;;16.10;99.90;;;;;;5093308;28;20043;-56
2021/06/05 05:01:00;;;;;;;35.13;24.77;;;16.10;99.90;;;;;;5093200;28;20139;-56
2021/06/05 05:03:28;;;;;;;38.72;25.75;;;16.10;99.90;;;;;;5093165;28;20040;-56
2021/06/05 05:05:59;;;;;;;40.38;28.55;;;16.10;99.90;;;;;;5093307;28;20047;-56
2021/06/05 05:08:25;;;;;;;35.92;27.33;;;16.20;99.90;;;;;;5093261;28;20040;-56
2021/06/05 05:10:52;;;;;;;39.60;27.90;;;16.10;99.90;;;;;;5093131;28;20398;-56
2021/06/05 05:13:25;;;;;;;40.72;27.92;;;16.10;99.90;;;;;;5092914;28;20047;-56
2021/06/05 05:15:52;;;;;;;41.38;28.63;;;16.00;99.90;;;;;;5092780;28;20377;-56
2021/06/05 05:18:19;;;;;;;40.60;27.58;;;16.00;99.90;;;;;;5092934;28;20482;-56
2021/06/05 05:20:46;;;;;;;37.65;25.83;;;15.90;99.90;;;;;;5092853;28;20047;-56
2021/06/05 05:23:13;;;;;;;36.35;26.33;;;16.00;99.90;;;;;;5093042;28;20143;-56
2021/06/05 05:25:40;;;;;;;38.67;25.73;;;16.00;99.90;;;;;;5091712;28;20047;-56
2021/06/05 05:28:07;;;;;;;36.67;26.33;;;15.90;99.90;;;;;;5092985;28;20043;-56
2021/06/05 05:30:36;;;;;;;32.97;24.02;;;16.00;99.90;;;;;;5092715;28;20051;-56
2021/06/05 05:33:03;;;;;;;34.10;23.63;;;15.90;99.90;;;;;;5092876;28;20048;-57
2021/06/05 05:35:29;;;;;;;33.17;23.45;;;15.80;99.90;;;;;;5092761;28;20088;-56
2021/06/05 05:37:55;;;;;;;27.58;21.67;;;15.80;99.90;;;;;;5092438;28;20043;-56
2021/06/05 05:40:23;;;;;;;22.98;18.35;;;15.70;99.90;;;;;;5092918;28;20478;-56
2021/06/05 05:42:48;;;;;;;30.60;19.30;;;15.70;99.90;;;;;;5092416;28;20086;-56
2021/06/05 05:45:15;;;;;;;21.70;16.63;;;15.60;99.90;;;;;;5092766;28;20036;-56
2021/06/05 05:47:41;;;;;;;16.08;12.98;;;15.60;99.90;;;;;;5092417;28;20442;-56
2021/06/05 05:50:10;;;;;;;22.63;14.55;;;15.70;99.90;;;;;;5092512;28;20044;-56
2021/06/05 05:52:36;;;;;;;14.77;11.95;;;15.60;99.90;;;;;;5092393;28;20541;-56
2021/06/05 05:55:04;;;;;;;14.38;12.45;;;15.70;99.90;;;;;;5092219;28;20127;-56
2021/06/05 05:57:31;;;;;;;18.23;12.63;;;15.70;99.90;;;;;;5091674;28;20537;-56
2021/06/05 05:59:57;;;;;;;14.93;12.65;;;15.60;99.90;;;;;;5092374;28;20035;-56
2021/06/05 06:02:22;;;;;;;19.98;13.27;;;15.70;99.90;;;;;;5092363;28;20044;-56
2021/06/05 06:04:48;;;;;;;16.65;12.00;;;15.60;99.90;;;;;;5092205;28;20105;-55
2021/06/05 06:07:14;;;;;;;16.80;11.50;;;15.60;99.90;;;;;;5092048;28;20039;-56
2021/06/05 06:09:40;;;;;;;12.05;10.52;;;15.60;99.90;;;;;;5092135;28;20048;-56
2021/06/05 06:12:06;;;;;;;14.60;11.15;;;15.60;99.90;;;;;;5091948;28;20040;-56
2021/06/05 06:14:32;;;;;;;20.73;10.85;;;15.60;99.90;;;;;;5091973;28;20051;-56
2021/06/05 06:16:58;;;;;;;14.18;10.65;;;15.60;99.90;;;;;;5091875;28;20044;-56
2021/06/05 06:19:24;;;;;;;16.65;11.40;;;15.60;99.90;;;;;;5091959;28;20064;-56
2021/06/05 06:21:49;;;;;;;13.65;11.15;;;15.50;99.90;;;;;;5091846;28;20047;-56
2021/06/05 06:24:15;;;;;;;14.55;11.27;;;15.50;99.90;;;;;;5090324;28;20094;-56
2021/06/05 06:26:41;;;;;;;18.27;12.40;;;15.40;99.90;;;;;;5091816;28;20071;-56
2021/06/05 06:29:19;;;;;;;17.45;11.07;;;15.30;99.90;;;;;;5091870;28;20082;-56
2021/06/05 06:31:47;;;;;;;12.30;10.05;;;15.20;99.90;;;;;;5091854;28;20066;-56
2021/06/05 06:34:14;;;;;;;13.80;10.00;;;15.10;99.90;;;;;;5091939;28;20378;-56
2021/06/05 06:36:43;;;;;;;20.98;12.65;;;15.30;99.90;;;;;;5090015;28;20051;-56
2021/06/05 06:39:10;;;;;;;14.10;10.00;;;15.30;99.90;;;;;;5091700;28;20119;-56
2021/06/05 06:41:36;;;;;;;15.32;10.70;;;15.30;99.90;;;;;;5091539;28;20426;-56
2021/06/05 06:44:04;;;;;;;15.43;9.98;;;15.40;99.90;;;;;;5091672;28;20417;-56
2021/06/05 06:46:35;;;;;;;11.63;8.20;;;15.40;99.90;;;;;;5091835;28;20040;-56
2021/06/05 06:49:01;;;;;;;12.55;7.68;;;15.40;99.90;;;;;;5091017;28;20559;-56
2021/06/05 06:51:28;;;;;;;20.50;9.23;;;15.50;99.90;;;;;;5091591;28;20536;-56
2021/06/05 06:53:55;;;;;;;14.63;8.25;;;15.40;99.90;;;;;;5091578;28;20373;-56
2021/06/05 06:56:21;;;;;;;13.23;8.52;;;15.50;99.90;;;;;;5091783;28;20473;-56
2021/06/05 06:58:49;;;;;;;11.32;7.63;;;15.50;99.90;;;;;;5091750;28;20084;-56
2021/06/05 07:01:16;;;;;;;11.25;8.18;;;15.60;99.90;;;;;;5091970;28;20421;-56
2021/06/05 07:03:42;;;;;;;13.98;8.65;;;15.50;99.90;;;;;;5091754;28;20539;-56
2021/06/05 07:06:08;;;;;;;11.50;7.95;;;15.50;99.90;;;;;;5091654;28;20066;-56
2021/06/05 07:08:36;;;;;;;16.55;9.98;;;15.50;99.90;;;;;;5091452;28;20139;-56
2021/06/05 07:11:09;;;;;;;14.10;9.40;;;15.60;99.90;;;;;;5095654;28;20043;-56
2021/06/05 07:13:35;;;;;;;15.38;10.20;;;15.50;99.90;;;;;;5095419;28;20040;-56
2021/06/05 07:16:01;;;;;;;12.43;8.75;;;15.60;99.90;;;;;;5095317;28;20047;-56
2021/06/05 07:18:29;;;;;;;18.50;10.98;;;15.60;99.90;;;;;;5095245;28;20044;-56
2021/06/05 07:20:56;;;;;;;14.20;9.77;;;15.70;99.90;;;;;;5095073;28;20405;-56
2021/06/05 07:23:25;;;;;;;15.35;10.90;;;15.70;99.90;;;;;;5095231;28;20047;-56
2021/06/05 07:25:51;;;;;;;13.32;10.20;;;15.80;99.90;;;;;;5095029;28;20493;-56
2021/06/05 07:28:20;;;;;;;11.50;9.98;;;15.90;99.90;;;;;;5095085;28;20044;-56
2021/06/05 07:30:46;;;;;;;;;;;16.00;99.90;;;;;;5095535;28;20135;-56
2021/06/05 07:33:12;;;;;;;14.88;11.75;;;16.20;99.90;;;;;;5094952;28;20002;-56
2021/06/05 07:35:39;;;;;;;12.35;9.63;;;16.40;99.90;;;;;;5094808;28;20043;-56
2021/06/05 07:38:06;;;;;;;15.27;12.95;;;16.70;99.90;;;;;;5094987;28;20088;-56
2021/06/05 07:40:33;;;;;;;14.65;12.40;;;16.90;99.90;;;;;;5095040;28;20076;-56
2021/06/05 07:42:59;;;;;;;14.90;13.00;;;16.90;99.90;;;;;;5094779;28;20485;-56
2021/06/05 07:45:24;;;;;;;17.38;15.27;;;17.00;99.90;;;;;;5094721;28;20051;-56
2021/06/05 07:47:51;;;;;;;14.07;12.25;;;17.00;99.90;;;;;;5094759;28;20040;-56
2021/06/05 07:50:18;;;;;;;20.27;16.30;;;17.10;99.90;;;;;;5094550;28;20043;-56
2021/06/05 07:52:44;;;;;;;15.85;14.18;;;17.20;99.90;;;;;;5094677;28;20036;-55
2021/06/05 07:55:10;;;;;;;18.75;16.20;;;17.10;99.90;;;;;;5094750;28;20051;-56
2021/06/05 07:57:36;;;;;;;27.60;22.02;;;17.20;99.90;;;;;;5094704;28;20132;-56
2021/06/05 08:00:07;;;;;;;21.73;18.67;;;17.30;99.90;;;;;;5094645;28;20052;-57
2021/06/05 08:02:33;;;;;;;23.88;20.17;;;17.30;99.90;;;;;;5093108;28;20130;-56
2021/06/05 08:04:58;;;;;;;23.35;20.45;;;17.30;99.90;;;;;;5094450;28;20446;-56
2021/06/05 08:07:24;;;;;;;26.10;21.48;;;17.30;99.90;;;;;;5094515;28;20052;-56
2021/06/05 08:09:52;;;;;;;26.85;21.15;;;17.30;99.90;;;;;;5094738;28;20159;-56
2021/06/05 08:12:17;;;;;;;26.45;21.05;;;17.30;99.90;;;;;;5094479;28;20052;-56
2021/06/05 08:14:43;;;;;;;27.38;21.73;;;17.50;99.90;;;;;;5094249;28;20159;-56
2021/06/05 08:17:09;;;;;;;22.88;19.60;;;17.40;99.90;;;;;;5094090;28;20131;-57
2021/06/05 08:19:37;;;;;;;22.48;19.45;;;17.40;99.90;;;;;;5094348;28;20044;-56
2021/06/05 08:22:03;;;;;;;21.00;17.83;;;17.50;99.90;;;;;;5093660;28;20047;-57
2021/06/05 08:24:28;;;;;;;20.55;17.60;;;17.60;99.90;;;;;;5094002;28;20095;-57
2021/06/05 08:26:54;;;;;;;22.10;18.45;;;17.70;99.90;;;;;;5093929;28;20075;-57
2021/06/05 08:29:20;;;;;;;22.55;20.13;;;17.90;99.90;;;;;;5093969;28;20541;-57
2021/06/05 08:31:49;;;;;;;20.30;18.20;;;18.00;99.90;;;;;;5094261;28;20465;-56
2021/06/05 08:34:15;;;;;;;;;;;18.10;99.90;;;;;;5094164;28;20094;-57
2021/06/05 08:36:42;;;;;;;23.67;20.02;;;18.30;99.90;;;;;;5093555;28;19920;-57
2021/06/05 08:39:09;;;;;;;20.92;18.85;;;18.30;99.90;;;;;;5093674;28;20093;-57
2021/06/05 08:41:53;;;;;;;20.20;18.02;;;18.50;99.90;;;;;;5093517;28;20040;-57
2021/06/05 08:44:34;;;;;;;22.15;19.63;;;18.50;99.90;;;;;;5093463;28;20036;-57
2021/06/05 08:47:10;;;;;;;22.33;19.95;;;18.60;99.90;;;;;;5093518;28;20122;-56
2021/06/05 08:49:40;;;;;;;24.80;21.88;;;18.70;99.90;;;;;;5093504;28;20492;-57
2021/06/05 08:52:17;;;;;;;22.80;20.42;;;18.70;99.90;;;;;;5093314;28;20118;-57
2021/06/05 08:55:05;;;;;;;25.65;22.90;;;18.80;99.90;;;;;;5093402;28;20044;-57
2021/06/05 08:57:40;;;;;;;30.45;24.48;;;18.80;99.90;;;;;;5093175;28;20553;-57
2021/06/05 09:00:10;;;;;;;27.27;24.38;;;18.80;99.90;;;;;;5093437;28;20048;-57
2021/06/05 09:02:37;;;;;;;25.83;23.02;;;18.90;99.90;;;;;;5093183;28;20043;-57
2021/06/05 09:05:09;;;;;;;27.05;23.33;;;18.80;99.90;;;;;;5093018;28;20043;-56
2021/06/05 09:07:36;;;;;;;26.98;24.10;;;18.90;99.90;;;;;;5093645;28;20044;-57
2021/06/05 09:10:04;;;;;;;25.98;23.25;;;18.90;99.90;;;;;;5093624;28;20054;-56
2021/06/05 09:12:30;;;;;;;25.33;22.70;;;18.80;99.90;;;;;;5093443;28;20047;-57
2021/06/05 09:14:58;;;;;;;27.45;21.30;;;18.80;99.90;;;;;;5093079;28;20387;-56
2021/06/05 09:17:29;;;;;;;26.13;23.57;;;18.80;99.90;;;;;;5093414;28;20526;-56
2021/06/05 09:20:07;;;;;;;27.73;24.85;;;18.70;99.90;;;;;;5092826;28;20044;-57
2021/06/05 09:22:35;;;;;;;27.50;24.42;;;18.60;99.90;;;;;;5092864;28;20119;-57
2021/06/05 09:25:18;;;;;;;;;;;18.50;99.90;;;;;;5093346;28;20040;-57
2021/06/05 09:27:44;;;;;;;28.85;25.70;;;18.60;99.90;;;;;;5093194;28;19916;-56
2021/06/05 09:30:36;;;;;;;28.05;25.20;;;18.60;99.90;;;;;;5092673;28;20094;-57
2021/06/05 09:33:06;;;;;;;27.15;24.25;;;18.60;99.90;;;;;;5091964;28;20043;-57
2021/06/05 09:35:40;;;;;;;27.38;24.20;;;18.40;99.90;;;;;;5092625;28;20443;-57
2021/06/05 09:38:18;;;;;;;27.70;24.85;;;18.40;99.90;;;;;;5092519;28;20081;-57
2021/06/05 09:41:10;;;;;;;29.77;26.65;;;18.20;99.90;;;;;;5092392;28;20072;-57
2021/06/05 09:43:36;;;;;;;32.70;28.60;;;18.10;99.90;;;;;;5030078;28;20064;-57
2021/06/05 09:46:12;;;;;;;34.65;29.52;;;18.00;99.90;;;;;;5030089;28;20041;-57
2021/06/05 09:48:42;;;;;;;31.27;28.00;;;18.10;99.90;;;;;;5029984;28;20488;-56
2021/06/05 09:51:36;;;;;;;33.35;29.92;;;18.00;99.90;;;;;;5030116;28;20041;-58
2021/06/05 09:54:09;;;;;;;34.42;30.10;;;17.90;99.90;;;;;;5030024;28;20547;-58
2021/06/05 09:56:59;;;;;;;36.55;31.08;;;18.00;99.90;;;;;;5029915;28;20099;-58
2021/06/05 09:59:27;;;;;;;38.78;32.47;;;18.00;99.90;;;;;;5028451;28;20049;-58
2021/06/05 10:02:00;;;;;;;40.00;32.22;;;17.90;99.90;;;;;;5029811;28;20403;-58
2021/06/05 10:04:29;;;;;;;36.70;30.70;;;17.90;99.90;;;;;;5029920;28;20064;-58
2021/06/05 10:06:59;;;;;;;38.30;31.30;;;18.00;99.90;;;;;;5029807;28;20049;-58
2021/06/05 10:09:24;;;;;;;42.80;33.42;;;18.00;99.90;;;;;;5029786;28;20041;-58
2021/06/05 10:11:58;;;;;;;41.28;32.45;;;18.10;99.90;;;;;;5029754;28;20385;-58
2021/06/05 10:14:50;;;;;;;31.52;28.23;;;18.00;99.90;;;;;;5029589;28;20071;-58
2021/06/05 10:17:25;;;;;;;34.78;29.25;;;18.10;99.90;;;;;;5029620;28;20049;-58
2021/06/05 10:20:33;;;;;;;32.75;28.92;;;18.10;99.90;;;;;;5041764;28;20148;-58
2021/06/05 10:23:00;;;;;;;35.63;29.15;;;18.20;99.90;;;;;;5091696;28;20040;-58
2021/06/05 10:25:43;;;;;;;31.67;28.23;;;18.10;99.90;;;;;;5091809;28;20047;-58
2021/06/05 10:28:19;;;;;;;38.72;29.33;;;18.10;99.90;;;;;;5091916;28;20046;-58
2021/06/05 10:30:56;;;;;;;31.90;27.50;;;18.10;99.90;;;;;;5092021;28;20044;-58
2021/06/05 10:33:46;;;;;;;30.98;27.60;;;18.10;99.90;;;;;;5090341;28;20455;-57
2021/06/05 10:36:27;;;;;;;28.50;24.73;;;18.10;99.90;;;;;;5091833;28;20117;-58
2021/06/05 10:38:59;;;;;;;29.55;23.98;;;18.20;99.90;;;;;;5091716;28;20048;-57
2021/06/05 10:41:32;;;;;;;32.72;24.70;;;18.20;99.90;;;;;;5090931;28;20077;-58
2021/06/05 10:43:58;;;;;;;30.20;26.60;;;18.30;99.90;;;;;;5092708;28;20044;-58
2021/06/05 10:46:59;;;;;;;31.85;27.13;;;18.40;99.90;;;;;;5095792;28;20117;-58
2021/06/05 10:49:48;;;;;;;35.30;27.88;;;18.60;99.90;;;;;;5096234;28;20044;-58
2021/06/05 10:52:33;;;;;;;32.03;28.63;;;18.70;99.90;;;;;;5095998;28;20128;-58
2021/06/05 10:55:12;;;;;;;31.27;27.52;;;18.80;99.90;;;;;;5095750;28;20051;-58
2021/06/05 10:57:40;;;;;;;;;;;18.80;99.90;;;;;;5095797;28;20131;-58
2021/06/05 11:00:06;;;;;;;31.70;28.42;;;18.90;99.90;;;;;;5111206;28;19916;-58
2021/06/05 11:02:44;;;;;;;37.15;31.83;;;18.90;99.90;;;;;;5095519;28;20401;-58
2021/06/05 11:05:19;;;;;;;35.78;29.85;;;18.90;99.90;;;;;;5095521;28;20051;-58
2021/06/05 11:07:47;;;;;;;37.25;31.70;;;18.90;99.90;;;;;;5095389;28;20482;-58
2021/06/05 11:10:52;;;;;;;36.90;31.08;;;19.00;99.90;;;;;;5095363;28;20488;-57
2021/06/05 11:13:36;;;;;;;33.22;28.42;;;19.00;99.90;;;;;;5095422;28;20122;-56
2021/06/05 11:16:50;;;;;;;33.60;28.02;;;19.20;99.90;;;;;;5095574;28;20040;-56
2021/06/05 11:19:25;;;;;;;32.55;29.15;;;19.30;99.90;;;;;;5032789;28;20085;-55
2021/06/05 11:22:12;;;;;;;30.98;27.40;;;19.40;99.90;;;;;;5032944;28;20045;-55
2021/06/05 11:24:42;;;;;;;33.47;29.98;;;19.40;99.90;;;;;;5032797;28;20052;-56
2021/06/05 11:27:36;;;;;;;36.03;31.02;;;19.40;99.90;;;;;;5032752;28;20068;-56
2021/06/05 11:30:20;;;;;;;32.17;28.92;;;19.40;99.90;;;;;;5032910;28;20384;-56
2021/06/05 11:32:52;;;;;;;33.30;29.33;;;19.40;99.90;;;;;;5032578;28;20042;-56
2021/06/05 11:35:40;;;;;;;33.47;29.92;;;19.50;99.90;;;;;;5032853;28;20677;-56
2021/06/05 11:38:12;;;;;;;34.88;30.38;;;19.40;99.90;;;;;;5032749;28;20467;-56
2021/06/05 11:40:50;;;;;;;34.28;30.58;;;19.40;99.90;;;;;;5032352;28;20523;-56
2021/06/05 11:43:28;;;;;;;33.03;29.67;;;19.40;99.90;;;;;;5032410;28;20053;-56
2021/06/05 11:46:16;;;;;;;31.60;28.40;;;19.40;99.90;;;;;;5032248;28;20041;-56
2021/06/05 11:48:47;;;;;;;36.38;31.20;;;19.40;99.90;;;;;;4973421;28;20046;-56
2021/06/05 11:51:35;;;;;;;34.88;31.38;;;19.40;99.90;;;;;;4973493;28;20497;-56
2021/06/05 11:54:19;;;;;;;36.00;31.70;;;19.40;99.90;;;;;;4973110;28;20047;-56
2021/06/05 11:56:55;;;;;;;39.47;33.55;;;19.40;99.90;;;;;;5030875;28;20062;-55
2021/06/05 11:59:41;;;;;;;36.63;32.92;;;19.30;99.90;;;;;;5032128;28;20045;-56
2021/06/05 12:02:22;;;;;;;37.22;31.67;;;19.40;99.90;;;;;;5032022;28;20414;-56
2021/06/05 12:04:54;;;;;;;39.58;32.90;;;19.30;99.90;;;;;;5032035;28;20054;-56
2021/06/05 12:07:26;;;;;;;34.72;30.88;;;19.30;99.90;;;;;;5031884;28;20104;-56
2021/06/05 12:09:55;;;;;;;34.00;30.35;;;19.30;99.90;;;;;;5031964;28;20049;-56
2021/06/05 12:12:23;;;;;;;32.22;28.88;;;19.20;99.90;;;;;;5031851;28;20045;-56
2021/06/05 12:14:56;;;;;;;34.58;30.70;;;19.20;99.90;;;;;;5031955;28;20049;-56
2021/06/05 12:17:38;;;;;;;34.45;30.45;;;19.30;99.90;;;;;;5031633;28;20045;-56
2021/06/05 12:20:15;;;;;;;35.13;30.10;;;19.30;99.90;;;;;;5031625;28;20075;-56
2021/06/05 12:22:44;;;;;;;32.47;29.15;;;19.30;99.90;;;;;;5031779;28;20049;-56
2021/06/05 12:25:33;;;;;;;32.65;29.10;;;19.40;99.90;;;;;;5048165;28;20067;-56
2021/06/05 12:28:15;;;;;;;29.85;26.83;;;19.40;99.90;;;;;;5093860;28;20065;-56
2021/06/05 12:30:45;;;;;;;39.55;29.20;;;19.40;99.90;;;;;;5093819;28;20036;-56
2021/06/05 12:33:12;;;;;;;33.20;29.80;;;19.40;99.90;;;;;;5093915;28;20047;-56
2021/06/05 12:35:43;;;;;;;33.05;29.50;;;19.50;99.90;;;;;;5093645;28;20501;-56
2021/06/05 12:38:28;;;;;;;38.15;31.63;;;19.50;99.90;;;;;;5093684;28;20032;-56
2021/06/05 12:41:02;;;;;;;31.15;27.63;;;19.50;99.90;;;;;;5093768;28;20048;-56
2021/06/05 12:43:32;;;;;;;28.05;25.25;;;19.60;99.90;;;;;;5093562;28;20036;-56
2021/06/05 12:46:17;;;;;;;30.63;27.42;;;19.70;99.90;;;;;;5093558;28;20040;-56